Time;durP1;ratioP1;P1;durP2;ratioP2;P2;SDS_P1;SDS_P2;PMS_P1;PMS_P2;Temp;Humidity;BMP_temperature;BMP_pressure;BME280_temperature;BME280_humidity;BME280_pressure;Samples;Min_cycle;Max_cycle;Signal;HPM_P1;HPM_P2
2021/11/30 00:02:29;;;;;;;7.10;4.55;;;;;;;1.15;100.00;99487.64;5028431;58;1136947;-80
2021/11/30 00:07:35;;;;;;;8.00;5.07;;;;;;;1.17;100.00;99485.33;5028440;58;1135197;-86
2021/11/30 00:12:41;;;;;;;10.70;5.85;;;;;;;1.17;100.00;99486.63;5028424;58;1134947;-85
2021/11/30 00:17:46;;;;;;;6.67;4.10;;;;;;;1.19;100.00;99495.67;5066590;58;1137012;-80
2021/11/30 00:22:52;;;;;;;8.37;4.70;;;;;;;1.17;100.00;99494.91;5110535;58;1135129;-80
2021/11/30 00:27:57;;;;;;;17.20;6.20;;;;;;;1.14;100.00;99498.98;5117079;57;1134832;-85
2021/11/30 00:33:05;;;;;;;8.13;5.10;;;;;;;1.09;100.00;99505.73;5133702;57;1136965;-81
2021/11/30 00:38:14;;;;;;;8.50;5.17;;;;;;;1.09;100.00;99508.80;5133588;57;1134690;-84
2021/11/30 00:43:25;;;;;;;8.00;5.13;;;;;;;1.07;100.00;99509.37;5133940;57;1133039;-80
2021/11/30 00:48:32;;;;;;;8.03;5.33;;;;;;;1.02;100.00;99509.15;5133765;57;1132900;-81
2021/11/30 00:53:38;;;;;;;14.30;4.83;;;;;;;1.02;100.00;99520.86;5133763;57;1133050;-79
2021/11/30 00:58:46;;;;;;;12.93;6.43;;;;;;;1.02;100.00;99518.72;5133742;57;1134922;-81
2021/11/30 01:03:52;;;;;;;13.50;6.83;;;;;;;0.99;100.00;99521.03;5133854;57;1134945;-83
2021/11/30 01:08:58;;;;;;;11.27;7.87;;;;;;;1.01;100.00;99524.85;5133869;57;1134807;-78
2021/11/30 01:14:05;;;;;;;16.87;8.93;;;;;;;1.05;100.00;99522.47;5134065;57;1134847;-81
2021/11/30 01:19:12;;;;;;;16.80;9.90;;;;;;;1.07;100.00;99514.58;5071526;57;1134894;-82
2021/11/30 01:24:20;;;;;;;11.83;7.93;;;;;;;1.05;100.00;99505.08;5050761;58;1135102;-85
2021/11/30 01:29:25;;;;;;;15.50;7.90;;;;;;;1.04;100.00;99498.20;5042042;58;1134831;-81
2021/11/30 01:34:31;;;;;;;13.80;7.23;;;;;;;1.01;100.00;99493.61;5028269;59;1134929;-78
2021/11/30 01:39:37;;;;;;;14.60;7.47;;;;;;;0.98;100.00;99495.91;5028671;59;1135029;-78
2021/11/30 01:44:52;;;;;;;14.00;8.03;;;;;;;0.95;100.00;99510.39;5028887;59;1134802;-80
2021/11/30 01:49:58;;;;;;;11.70;7.03;;;;;;;0.89;100.00;99513.34;5028927;59;1134859;-80
2021/11/30 01:55:06;;;;;;;10.07;6.60;;;;;;;0.85;100.00;99518.80;5028815;59;1132860;-81
2021/11/30 02:00:16;;;;;;;15.28;7.40;;;;;;;0.81;100.00;99523.31;5037662;59;1136930;-80
2021/11/30 02:05:22;;;;;;;7.75;5.17;;;;;;;0.78;100.00;99516.97;4992372;59;1136926;-82
2021/11/30 02:10:28;;;;;;;7.60;5.17;;;;;;;0.75;100.00;99530.63;5028896;59;1134812;-77
2021/11/30 02:15:41;;;;;;;8.05;5.03;;;;;;;0.75;100.00;99521.52;5030739;58;1134826;-81
2021/11/30 02:20:46;;;;;;;7.93;4.93;;;;;;;0.72;100.00;99535.53;5106119;58;1134966;-82
2021/11/30 02:25:51;;;;;;;8.47;4.30;;;;;;;0.73;100.00;99525.96;5100739;58;1135183;-77
2021/11/30 02:30:57;;;;;;;3.80;3.37;;;;;;;0.73;100.00;99523.36;5100862;58;1134510;-77
2021/11/30 02:36:18;;;;;;;3.73;3.30;;;;;;;0.70;100.00;99500.94;5100727;58;1134934;-81
2021/11/30 02:41:24;;;;;;;6.10;4.63;;;;;;;0.69;100.00;99504.00;5100818;58;1135052;-81
2021/11/30 02:46:39;;;;;;;6.13;3.73;;;;;;;0.67;100.00;99501.09;5100694;58;1135159;-80
2021/11/30 02:51:51;;;;;;;5.55;4.05;;;;;;;0.64;100.00;99507.75;5100431;58;1134862;-80
2021/11/30 02:57:00;;;;;;;7.90;3.67;;;;;;;0.63;100.00;99487.86;5100506;58;1135128;-76
2021/11/30 03:02:13;;;;;;;3.97;2.70;;;;;;;0.61;100.00;99489.23;5100867;58;1134942;-75
2021/11/30 03:07:22;;;;;;;;;;;;;;;0.59;100.00;99486.37;5104373;58;1134974;-79
2021/11/30 03:12:27;;;;;;;5.90;3.47;;;;;;;0.56;100.00;99483.92;5103243;58;972121;-79
2021/11/30 03:17:33;;;;;;;3.87;3.30;;;;;;;0.48;100.00;99490.81;5100526;58;1132850;-82
2021/11/30 03:22:39;;;;;;;3.13;2.77;;;;;;;0.41;100.00;99492.53;5100547;58;1134967;-81
2021/11/30 03:27:47;;;;;;;7.97;3.47;;;;;;;0.32;100.00;99488.17;5100755;58;1134946;-77
2021/11/30 03:38:13;;;;;;;2.87;2.33;;;;;;;0.16;100.00;99479.95;5014576;58;1135106;-76
2021/11/30 03:43:19;;;;;;;5.17;4.33;;;;;;;0.06;100.00;99473.09;5014932;59;1135135;-77
2021/11/30 03:48:24;;;;;;;45.93;20.87;;;;;;;-0.01;100.00;99467.84;5014793;59;1135250;-79
2021/11/30 03:53:30;;;;;;;46.63;27.02;;;;;;;-0.05;100.00;99471.52;5014276;59;1141428;-84
2021/11/30 03:58:36;;;;;;;21.47;17.77;;;;;;;-0.05;100.00;99472.81;4921104;59;1141557;-78
2021/11/30 04:03:43;;;;;;;21.93;16.30;;;;;;;-0.09;100.00;99464.32;4878819;59;1141316;-79
2021/11/30 04:08:50;;;;;;;9.10;5.93;;;;;;;-0.14;100.00;99464.16;4912966;59;1141141;-84
2021/11/30 04:13:55;;;;;;;14.50;6.97;;;;;;;-0.22;100.00;99463.73;4965139;59;1137083;-78
2021/11/30 04:19:01;;;;;;;24.33;8.97;;;;;;;-0.28;100.00;99450.58;5028192;58;1137051;-78
2021/11/30 04:24:07;;;;;;;43.23;15.07;;;;;;;-0.29;100.00;99435.90;5028177;58;1137159;-81
2021/11/30 04:29:13;;;;;;;17.67;7.47;;;;;;;-0.25;100.00;99433.53;5037649;58;1139100;-77
2021/11/30 04:34:19;;;;;;;29.13;10.53;;;;;;;-0.21;100.00;99429.87;5087877;57;1137002;-78
2021/11/30 04:39:25;;;;;;;17.30;6.27;;;;;;;-0.20;100.00;99425.06;5050722;58;1139029;-78
2021/11/30 04:44:34;;;;;;;19.43;8.27;;;;;;;-0.20;100.00;99415.97;5050690;58;1136984;-78
2021/11/30 04:49:53;;;;;;;14.30;6.10;;;;;;;-0.19;100.00;99394.72;5050450;58;1136957;-81
2021/11/30 04:54:49;;;;;;;26.57;9.07;;;;;;;-0.17;100.00;99395.48;5049007;58;1137003;-81
2021/11/30 04:59:55;;;;;;;20.93;8.80;;;;;;;-0.16;100.00;99385.02;5050661;58;1137271;-77
2021/11/30 05:05:00;;;;;;;18.40;7.73;;;;;;;-0.13;100.00;99371.00;5050696;58;1137349;-78
2021/11/30 05:10:06;;;;;;;20.53;8.97;;;;;;;-0.11;100.00;99367.41;5050694;58;1137067;-80
2021/11/30 05:15:13;;;;;;;13.67;6.20;;;;;;;-0.04;100.00;99353.64;5051053;58;1136985;-79
2021/11/30 05:20:20;;;;;;;23.53;8.83;;;;;;;-0.03;100.00;99343.17;5132050;57;1137177;-80
2021/11/30 05:25:34;;;;;;;7.90;4.47;;;;;;;-0.01;100.00;99343.93;5134351;57;1136979;-77
2021/11/30 05:30:40;;;;;;;11.60;9.80;;;;;;;0.01;100.00;99325.63;5134243;57;1134890;-78
2021/11/30 05:35:47;;;;;;;14.93;8.67;;;;;;;0.02;100.00;99320.81;5112521;57;1132815;-80
2021/11/30 05:40:53;;;;;;;12.37;6.07;;;;;;;0.04;100.00;99308.58;5111025;58;1133095;-79
2021/11/30 05:45:58;;;;;;;10.00;5.63;;;;;;;0.08;100.00;99297.09;5111097;58;1136981;-80
2021/11/30 05:51:05;;;;;;;7.55;5.12;;;;;;;0.11;100.00;99294.34;5111096;58;1136920;-79
2021/11/30 05:56:11;;;;;;;9.18;5.30;;;;;;;0.15;100.00;99282.86;5111036;58;1134904;-79
2021/11/30 06:01:27;;;;;;;8.63;5.50;;;;;;;0.19;100.00;99277.84;5111377;58;1135094;-81
2021/11/30 06:06:24;;;;;;;10.45;6.25;;;;;;;0.22;100.00;99273.78;5109530;58;1135123;-77
2021/11/30 06:11:30;;;;;;;8.80;6.17;;;;;;;0.25;100.00;99267.58;5111036;58;1136948;-78
2021/11/30 06:16:36;;;;;;;8.43;5.80;;;;;;;0.31;100.00;99252.91;5092280;58;1134966;-80
2021/11/30 06:21:45;;;;;;;10.50;5.63;;;;;;;0.37;100.00;99249.98;5028645;59;1134838;-77
2021/11/30 06:26:50;;;;;;;11.33;7.53;;;;;;;0.43;100.00;99246.22;5028620;59;1136990;-77
2021/11/30 06:31:56;;;;;;;11.90;7.47;;;;;;;0.47;100.00;99222.98;5028654;59;1136990;-80
2021/11/30 06:37:06;;;;;;;30.50;11.80;;;;;;;0.48;100.00;99222.90;5051014;58;1137122;-76
2021/11/30 06:42:09;;;;;;;11.33;7.93;;;;;;;0.54;100.00;99214.75;5050785;58;1139294;-78
2021/11/30 06:47:16;;;;;;;13.80;10.27;;;;;;;0.57;100.00;99208.55;5050850;57;1136972;-81
2021/11/30 06:52:22;;;;;;;22.47;13.37;;;;;;;0.60;100.00;99200.57;5051080;57;1139065;-76
2021/11/30 06:57:27;;;;;;;36.83;20.43;;;;;;;0.63;100.00;99192.56;5050868;57;1139076;-78
2021/11/30 07:02:35;;;;;;;18.00;10.73;;;;;;;0.66;100.00;99173.72;5050903;57;1138564;-78
2021/11/30 07:13:22;;;;;;;26.68;14.90;;;;;;;0.70;100.00;99143.99;5051128;57;1136976;-79
2021/11/30 07:18:28;;;;;;;22.87;11.38;;;;;;;0.72;100.00;99130.06;5050408;58;1139162;-79
2021/11/30 07:23:34;;;;;;;19.53;9.30;;;;;;;0.75;100.00;99127.28;5050778;58;1139021;-79
2021/11/30 07:28:40;;;;;;;20.15;11.83;;;;;;;0.75;100.00;99111.67;5050850;58;1136928;-82
2021/11/30 07:33:48;;;;;;;17.27;11.30;;;;;;;0.75;100.00;99100.80;5046611;58;1139077;-77
2021/11/30 07:38:54;;;;;;;16.33;9.97;;;;;;;0.79;100.00;99079.30;5028321;59;1139054;-76
2021/11/30 07:44:00;;;;;;;10.95;7.37;;;;;;;0.79;100.00;99068.44;5028087;59;1136982;-80
2021/11/30 07:49:05;;;;;;;18.70;11.73;;;;;;;0.81;100.00;99054.87;5028158;59;1136964;-77
2021/11/30 07:54:11;;;;;;;15.83;9.93;;;;;;;0.82;100.00;99038.33;5028243;59;1139043;-76
2021/11/30 07:59:19;;;;;;;23.70;11.47;;;;;;;0.80;100.00;99020.66;5028236;59;1137201;-80
2021/11/30 08:04:25;;;;;;;22.37;12.73;;;;;;;0.76;100.00;99008.80;5028180;59;1139103;-77
2021/11/30 08:09:34;;;;;;;18.87;10.53;;;;;;;0.73;100.00;98989.46;5028164;59;1139048;-77
2021/11/30 08:14:39;;;;;;;25.23;13.70;;;;;;;0.75;100.00;98978.97;5028151;59;1139273;-77
2021/11/30 08:19:47;;;;;;;24.10;12.73;;;;;;;0.77;100.00;98971.41;5098861;58;1139052;-77
2021/11/30 08:24:52;;;;;;;19.73;10.17;;;;;;;0.77;100.00;98950.59;5110479;58;1137133;-79
2021/11/30 08:29:58;;;;;;;25.07;13.37;;;;;;;0.79;100.00;98938.78;5110474;58;1137374;-81
2021/11/30 08:35:05;;;;;;;21.90;11.90;;;;;;;0.79;100.00;98916.67;5116520;57;1137202;-81
2021/11/30 08:40:12;;;;;;;24.57;13.53;;;;;;;0.80;100.00;98901.42;5133581;57;1137153;-81
2021/11/30 08:45:17;;;;;;;19.87;10.97;;;;;;;0.84;100.00;98879.48;5136839;57;1137289;-79
2021/11/30 08:50:24;;;;;;;20.37;11.00;;;;;;;0.82;100.00;98856.63;5133554;57;1136945;-78
2021/11/30 08:55:30;;;;;;;21.10;12.10;;;;;;;0.84;100.00;98832.65;5133648;57;1136960;-76
2021/11/30 09:00:37;;;;;;;23.37;12.87;;;;;;;0.87;100.00;98820.28;5131539;57;1136951;-80
2021/11/30 09:05:44;;;;;;;27.20;14.70;;;;;;;0.92;100.00;98823.86;5133689;57;1137017;-82
2021/11/30 09:10:49;;;;;;;37.93;16.20;;;;;;;0.98;100.00;98827.37;5133587;57;1136976;-79
2021/11/30 09:15:55;;;;;;;20.00;10.97;;;;;;;1.00;100.00;98799.02;5125964;57;1137189;-77
2021/11/30 09:21:01;;;;;;;19.23;10.60;;;;;;;1.03;100.00;98779.30;5050592;58;1136991;-76
2021/11/30 09:26:07;;;;;;;13.40;8.57;;;;;;;1.00;100.00;98762.58;5050679;58;1136945;-78
2021/11/30 09:31:15;;;;;;;17.17;11.28;;;;;;;0.98;100.00;98738.88;5050475;58;1134841;-77
2021/11/30 09:36:20;;;;;;;29.57;15.28;;;;;;;0.97;100.00;98711.19;5050367;58;1137016;-79
2021/11/30 09:41:29;;;;;;;30.60;12.53;;;;;;;0.98;100.00;98702.44;5050560;58;1137002;-77
2021/11/30 09:46:34;;;;;;;17.77;8.90;;;;;;;0.99;100.00;98670.27;5050621;58;1136967;-78
2021/11/30 09:51:40;;;;;;;15.60;9.43;;;;;;;1.01;100.00;98669.70;5050761;58;1133033;-77
2021/11/30 09:56:46;;;;;;;18.00;7.40;;;;;;;1.02;100.00;98638.84;5050719;58;1132813;-76
2021/11/30 10:01:52;;;;;;;12.17;7.33;;;;;;;0.98;100.00;98617.38;5051803;57;1137231;-76
2021/11/30 10:06:57;;;;;;;19.40;11.75;;;;;;;0.93;100.00;98592.13;5051152;58;1137147;-77
2021/11/30 10:12:09;;;;;;;28.97;11.10;;;;;;;0.86;100.00;98587.47;5051653;58;1138946;-85
2021/11/30 10:17:26;;;;;;;8.07;4.47;;;;;;;0.83;100.00;98568.16;5081440;57;1138934;-81
2021/11/30 10:22:53;;;;;;;8.33;6.03;;;;;;;0.76;100.00;98536.55;5134711;57;1134927;-82
2021/11/30 10:28:02;;;;;;;13.18;5.97;;;;;;;0.68;100.00;98514.11;5127499;57;1134853;-81
2021/11/30 10:33:18;;;;;;;10.13;6.30;;;;;;;0.59;100.00;98490.88;5125198;57;1137201;-82
2021/11/30 10:38:33;;;;;;;8.87;6.77;;;;;;;0.59;100.00;98480.95;5125846;57;1137103;-86
2021/11/30 10:43:55;;;;;;;11.20;7.07;;;;;;;0.59;100.00;98466.17;5125328;57;1134824;-82
2021/11/30 10:49:00;;;;;;;16.60;7.93;;;;;;;0.60;100.00;98444.90;5125179;57;1136941;-85
2021/11/30 10:54:06;;;;;;;5.73;4.23;;;;;;;0.60;100.00;98425.39;5125831;57;1136925;-86
2021/11/30 10:59:21;;;;;;;37.80;14.40;;;;;;;0.58;100.00;98409.89;5125247;57;1135072;-83
2021/11/30 11:04:33;;;;;;;24.20;9.17;;;;;;;0.58;100.00;98372.17;5124867;57;1139390;-84
2021/11/30 11:09:47;;;;;;;26.07;11.10;;;;;;;0.60;100.00;98361.67;5124707;57;1137061;-84
2021/11/30 11:14:52;;;;;;;5.63;4.73;;;;;;;0.57;100.00;98338.00;5125626;57;1139340;-80
2021/11/30 11:19:58;;;;;;;8.37;5.10;;;;;;;0.61;100.00;98322.52;5050001;57;1134943;-86
2021/11/30 11:25:06;;;;;;;32.60;10.53;;;;;;;0.63;100.00;98325.01;5041550;57;1134854;-85
2021/11/30 11:30:13;;;;;;;7.57;5.00;;;;;;;0.65;100.00;98303.16;5040772;58;1139070;-81
2021/11/30 11:35:23;;;;;;;24.70;7.50;;;;;;;0.64;100.00;98299.36;5042031;58;1134862;-82
2021/11/30 11:40:28;;;;;;;15.70;7.07;;;;;;;0.63;100.00;98291.19;5024344;58;1137126;-80
2021/11/30 11:45:34;;;;;;;32.40;18.10;;;;;;;0.63;100.00;98278.19;5020100;59;1134928;-83
2021/11/30 11:51:04;;;;;;;80.40;29.07;;;;;;;0.63;100.00;98263.87;5019751;59;1137235;-79
2021/11/30 11:56:23;;;;;;;67.73;24.20;;;;;;;0.59;100.00;98253.36;5019526;59;1136983;-80
2021/11/30 12:01:29;;;;;;;22.05;8.78;;;;;;;0.59;100.00;98241.66;5019590;58;1137068;-79
2021/11/30 12:06:39;;;;;;;36.53;14.97;;;;;;;0.59;100.00;98220.86;5094411;58;1134855;-80
2021/11/30 12:11:55;;;;;;;25.97;10.50;;;;;;;0.60;100.00;98216.84;5100643;58;1136945;-80
2021/11/30 12:17:21;;;;;;;12.53;5.60;;;;;;;0.61;100.00;98198.97;5101293;58;1137026;-77
2021/11/30 12:23:02;;;;;;;19.62;7.35;;;;;;;0.64;100.00;98201.81;5077363;58;1137048;-79
2021/11/30 12:28:09;;;;;;;51.17;13.70;;;;;;;0.68;100.00;98169.44;5110193;58;1137318;-78
2021/11/30 12:33:23;;;;;;;40.27;12.80;;;;;;;0.72;100.00;98174.78;5110298;58;1138937;-80
2021/11/30 12:38:41;;;;;;;13.87;6.70;;;;;;;0.73;100.00;98163.91;5110126;57;1139500;-80
2021/11/30 12:43:46;;;;;;;14.33;5.77;;;;;;;0.78;100.00;98159.16;5107704;58;1137135;-81
2021/11/30 12:48:52;;;;;;;13.20;6.13;;;;;;;0.81;100.00;98159.77;5100609;58;1137013;-80
2021/11/30 12:54:00;;;;;;;22.53;10.33;;;;;;;0.84;100.00;98154.34;5101441;58;1136957;-80
2021/11/30 12:59:06;;;;;;;12.80;5.45;;;;;;;0.87;100.00;98143.70;5100855;58;1139303;-79
2021/11/30 13:04:33;;;;;;;5.50;3.10;;;;;;;0.92;100.00;98146.77;5100133;57;1137398;-78
2021/11/30 13:09:45;;;;;;;5.57;3.30;;;;;;;0.98;100.00;98141.58;5099861;57;1135136;-79
2021/11/30 13:14:53;;;;;;;4.13;3.13;;;;;;;1.01;100.00;98130.46;5099689;57;1134915;-79
2021/11/30 13:19:59;;;;;;;32.60;8.87;;;;;;;1.07;100.00;98129.14;5099968;58;1134930;-75
2021/11/30 13:25:08;;;;;;;13.90;5.57;;;;;;;1.12;100.00;98117.91;5099746;58;1137165;-77
2021/11/30 13:30:17;;;;;;;7.67;4.43;;;;;;;1.15;100.00;98108.57;5099942;58;1137101;-77
2021/11/30 13:35:32;;;;;;;7.13;3.60;;;;;;;1.20;100.00;98112.95;5100870;58;1134787;-81
2021/11/30 13:40:47;;;;;;;2.37;1.43;;;;;;;1.24;100.00;98111.75;5069895;57;1135349;-82
2021/11/30 13:46:06;;;;;;;1.80;1.37;;;;;;;1.33;100.00;98114.12;5038135;58;1134996;-82
2021/11/30 13:51:12;;;;;;;3.30;2.70;;;;;;;1.38;100.00;98111.97;5038086;58;1132790;-83
2021/11/30 13:56:28;;;;;;;3.17;2.20;;;;;;;1.45;100.00;98108.42;5038557;58;1132814;-82
2021/11/30 14:01:51;;;;;;;1.63;1.40;;;;;;;1.51;100.00;98098.83;5036538;58;1132816;-84
2021/11/30 14:07:02;;;;;;;8.53;2.80;;;;;;;1.58;100.00;98089.09;5038669;58;1132741;-82
2021/11/30 14:12:12;;;;;;;8.30;2.97;;;;;;;1.61;100.00;98081.04;5038488;58;1133095;-84
2021/11/30 14:17:33;;;;;;;2.87;2.10;;;;;;;1.63;100.00;98086.95;5000657;58;1133130;-82
2021/11/30 14:22:41;;;;;;;1.43;0.93;;;;;;;1.64;100.00;98081.27;4907784;59;1130739;-79
2021/11/30 14:27:58;;;;;;;1.03;0.90;;;;;;;1.69;100.00;98086.92;4908855;58;1135653;-81
2021/11/30 14:33:08;;;;;;;6.73;3.83;;;;;;;1.72;100.00;98074.95;4979221;58;1134748;-80
2021/11/30 14:38:38;;;;;;;3.87;2.60;;;;;;;1.75;100.00;98062.99;4979277;58;1134967;-81
2021/11/30 14:43:44;;;;;;;35.55;17.55;;;;;;;1.81;100.00;98061.68;5133679;57;1135095;-81
2021/11/30 14:48:49;;;;;;;19.63;14.07;;;;;;;1.86;100.00;98067.33;5146627;57;1139241;-82
2021/11/30 14:53:58;;;;;;;7.60;5.17;;;;;;;1.92;100.00;98070.27;5146524;57;1138911;-80
2021/11/30 14:59:06;;;;;;;14.33;6.80;;;;;;;1.98;100.00;98058.06;5111772;57;1135017;-78
2021/11/30 15:04:13;;;;;;;9.87;6.60;;;;;;;2.03;100.00;98066.30;5146495;57;1136944;-78
2021/11/30 15:09:31;;;;;;;8.97;6.97;;;;;;;2.11;100.00;98053.96;5125729;57;1134965;-79
2021/11/30 15:14:36;;;;;;;11.53;4.53;;;;;;;2.16;100.00;98056.99;5090747;57;1135178;-84
2021/11/30 15:19:45;;;;;;;9.37;4.87;;;;;;;2.21;100.00;98052.23;5127716;57;1137424;-84
2021/11/30 15:24:55;;;;;;;4.63;2.37;;;;;;;2.27;100.00;98058.73;5114268;57;1135400;-85
2021/11/30 15:30:05;;;;;;;21.60;11.20;;;;;;;2.31;100.00;98059.64;5097459;57;1134774;-86
2021/11/30 15:35:12;;;;;;;212.00;49.83;;;;;;;2.39;100.00;98059.02;5119548;56;1138975;-85
2021/11/30 15:40:19;;;;;;;149.37;38.13;;;;;;;2.47;100.00;98056.58;5093045;57;1141104;-85
2021/11/30 15:45:24;;;;;;;163.07;38.67;;;;;;;2.59;100.00;98050.83;5057241;57;1141536;-81
2021/11/30 15:50:31;;;;;;;77.97;18.30;;;;;;;2.70;100.00;98054.66;5048569;57;1141382;-79
2021/11/30 15:57:22;;;;;;;131.53;34.80;;;;;;;2.78;100.00;98067.39;5063854;57;1139084;-83
2021/11/30 16:00:44;;;;;;;118.50;49.03;;;;;;;2.85;100.00;98053.35;5057199;57;1141104;-84
2021/11/30 16:05:50;;;;;;;45.93;19.57;;;;;;;2.92;100.00;98062.77;5112057;57;1141423;-88
2021/11/30 16:10:56;;;;;;;14.93;4.00;;;;;;;2.99;100.00;98058.22;5113375;57;1139250;-84
2021/11/30 16:16:01;;;;;;;9.40;3.37;;;;;;;3.03;100.00;98074.45;5080128;57;1137127;-84
2021/11/30 16:21:07;;;;;;;10.87;3.50;;;;;;;3.06;100.00;98084.61;5055794;57;1134926;-82
2021/11/30 16:26:14;;;;;;;12.53;4.40;;;;;;;3.04;100.00;98081.33;5112150;57;1136960;-84
2021/11/30 16:31:20;;;;;;;19.83;5.87;;;;;;;3.00;100.00;98084.67;5072226;57;1136975;-88
2021/11/30 16:36:25;;;;;;;6.47;3.17;;;;;;;3.00;100.00;98076.02;5058461;57;1137066;-84
2021/11/30 16:41:33;;;;;;;5.63;2.40;;;;;;;2.96;100.00;98075.44;5078576;57;1132900;-86
2021/11/30 16:46:44;;;;;;;20.17;3.67;;;;;;;2.92;100.00;98081.05;5128587;57;1132797;-86
2021/11/30 16:51:49;;;;;;;9.37;2.10;;;;;;;2.84;100.00;98072.58;5145921;57;1135172;-84
2021/11/30 16:56:56;;;;;;;11.10;2.03;;;;;;;2.90;100.00;98094.26;5146440;57;1132718;-85
2021/11/30 17:02:03;;;;;;;9.37;2.50;;;;;;;2.92;100.00;98087.58;5146535;57;1134877;-86
2021/11/30 17:07:09;;;;;;;2.77;1.83;;;;;;;2.98;100.00;98085.76;5133288;57;1133020;-85
2021/11/30 17:12:17;;;;;;;8.53;1.93;;;;;;;3.03;100.00;98087.51;5106001;57;1132985;-84
2021/11/30 17:17:21;;;;;;;6.67;2.10;;;;;;;3.09;100.00;98101.33;5099146;57;1132943;-84
2021/11/30 17:22:28;;;;;;;9.13;2.77;;;;;;;3.09;100.00;98103.46;5104428;56;1133066;-85
2021/11/30 17:27:34;;;;;;;3.50;1.60;;;;;;;3.15;100.00;98104.73;5104703;57;1133094;-84
2021/11/30 17:32:40;;;;;;;9.40;3.50;;;;;;;3.13;100.00;98104.03;5104138;56;1132973;-86
2021/11/30 17:37:46;;;;;;;12.10;1.77;;;;;;;3.11;100.00;98117.22;5101035;56;1132670;-86
2021/11/30 17:42:52;;;;;;;11.13;1.53;;;;;;;3.12;100.00;98116.27;5096562;56;1134804;-86
2021/11/30 17:47:58;;;;;;;15.67;4.50;;;;;;;3.13;100.00;98128.36;5094334;57;1134890;-85
2021/11/30 17:53:04;;;;;;;9.93;1.37;;;;;;;3.16;100.00;98132.03;5093319;57;1135037;-80
2021/11/30 17:58:10;;;;;;;5.10;1.13;;;;;;;3.21;100.00;98126.90;5069956;57;1132862;-77
2021/11/30 18:03:16;;;;;;;7.43;2.23;;;;;;;3.24;100.00;98137.88;5063052;57;1132828;-79
2021/11/30 18:08:21;;;;;;;6.40;1.70;;;;;;;3.30;100.00;98132.15;5072640;57;1130686;-82
2021/11/30 18:13:27;;;;;;;2.57;1.20;;;;;;;3.33;100.00;98138.42;5088043;57;1130913;-79
2021/11/30 18:18:33;;;;;;;5.67;4.20;;;;;;;3.32;100.00;98149.83;5081258;57;1134794;-81
2021/11/30 18:23:39;;;;;;;8.63;3.55;;;;;;;3.30;100.00;98166.11;5122159;57;1134886;-84
2021/11/30 18:28:45;;;;;;;12.90;4.23;;;;;;;3.29;100.00;98175.38;5091360;57;1135128;-82
2021/11/30 18:33:50;;;;;;;14.00;3.77;;;;;;;3.28;100.00;98187.61;5084956;57;1136880;-82
2021/11/30 18:38:56;;;;;;;12.60;2.23;;;;;;;3.24;100.00;98200.57;5091906;57;1137098;-79
2021/11/30 18:44:02;;;;;;;6.00;1.93;;;;;;;3.26;100.00;98214.34;5098584;57;1137193;-82
2021/11/30 18:49:07;;;;;;;5.33;2.97;;;;;;;3.22;100.00;98218.63;5155226;57;1134909;-79
2021/11/30 18:54:13;;;;;;;7.83;2.70;;;;;;;3.21;100.00;98224.84;5155255;57;1135118;-81
2021/11/30 18:59:19;;;;;;;3.98;1.47;;;;;;;3.20;100.00;98241.47;5153444;57;1134940;-76
2021/11/30 19:04:25;;;;;;;5.57;2.17;;;;;;;3.15;100.00;98243.15;5115466;57;1134988;-78
2021/11/30 19:09:31;;;;;;;8.47;2.10;;;;;;;3.14;100.00;98263.21;5121811;57;1134868;-81
2021/11/30 19:14:36;;;;;;;6.60;2.13;;;;;;;3.12;100.00;98269.03;5061035;58;1135187;-74
2021/11/30 19:19:43;;;;;;;5.20;2.20;;;;;;;3.09;100.00;98277.13;5112066;57;1135123;-80
2021/11/30 19:24:49;;;;;;;1.20;1.10;;;;;;;3.07;100.00;98295.17;5119930;57;1134893;-79
2021/11/30 19:29:55;;;;;;;3.70;1.30;;;;;;;3.05;100.00;98307.55;5091068;57;1134983;-77
2021/11/30 19:35:01;;;;;;;1.17;0.97;;;;;;;3.06;100.00;98311.31;5099757;57;1135164;-81
2021/11/30 19:40:08;;;;;;;4.40;1.37;;;;;;;3.06;100.00;98331.37;5109619;57;1134925;-81
2021/11/30 19:45:15;;;;;;;6.72;1.32;;;;;;;3.12;100.00;98349.17;5128197;57;1134887;-76
2021/11/30 19:50:25;;;;;;;7.17;1.30;;;;;;;3.12;100.00;98357.83;5113630;57;1134762;-79
2021/11/30 19:55:31;;;;;;;8.37;1.07;;;;;;;3.12;100.00;98383.12;5093779;57;1134900;-79
2021/11/30 20:05:47;;;;;;;1.00;0.63;;;;;;;3.12;100.00;98399.62;5071769;58;1134939;-84
2021/11/30 20:10:53;;;;;;;3.00;1.00;;;;;;;3.09;100.00;98420.75;5124167;57;1135035;-79
2021/11/30 20:16:11;;;;;;;3.57;1.33;;;;;;;3.07;100.00;98438.33;5115863;57;1134788;-79
2021/11/30 20:21:13;;;;;;;12.30;1.90;;;;;;;3.04;100.00;98460.79;5126391;57;1135028;-80
2021/11/30 20:26:19;;;;;;;3.73;1.73;;;;;;;2.98;100.00;98469.57;5123115;57;1136980;-84
2021/11/30 20:31:26;;;;;;;2.87;1.57;;;;;;;2.93;100.00;98493.42;5120776;57;1134849;-82
2021/11/30 20:41:55;;;;;;;5.90;1.20;;;;;;;2.87;100.00;98513.98;5143668;57;1134913;-78
2021/11/30 20:47:01;;;;;;;2.43;0.80;;;;;;;2.76;100.00;98513.02;5114865;57;1134862;-78
2021/11/30 20:52:09;;;;;;;1.60;1.20;;;;;;;2.78;100.00;98533.30;5082779;57;1134793;-75
2021/11/30 20:57:15;;;;;;;3.43;0.83;;;;;;;2.73;100.00;98551.59;5071317;57;1134892;-78
2021/11/30 21:02:34;;;;;;;3.27;0.95;;;;;;;2.68;100.00;98563.69;5017263;57;1135470;-79
2021/11/30 21:07:38;;;;;;;2.80;1.67;;;;;;;2.66;100.00;98578.63;4988771;58;1132750;-78
2021/11/30 21:12:51;;;;;;;2.03;1.47;;;;;;;2.67;100.00;98593.34;5030939;58;1132845;-79
2021/11/30 21:17:59;;;;;;;2.47;2.13;;;;;;;2.68;100.00;98591.56;5032704;58;1133160;-81
2021/11/30 21:23:09;;;;;;;7.67;2.17;;;;;;;2.70;100.00;98626.20;5039160;57;1132714;-83
2021/11/30 21:28:15;;;;;;;1.70;1.60;;;;;;;2.70;100.00;98629.66;5019441;57;1132823;-80
2021/11/30 21:33:20;;;;;;;5.07;3.33;;;;;;;2.72;100.00;98659.56;5022729;57;1132815;-79
2021/11/30 21:38:26;;;;;;;5.60;2.73;;;;;;;2.72;100.00;98659.56;5018786;57;1132718;-80
2021/11/30 21:43:32;;;;;;;3.33;2.50;;;;;;;2.77;100.00;98686.95;5055980;57;1132711;-78
2021/11/30 21:48:39;;;;;;;4.70;2.70;;;;;;;2.80;100.00;98698.48;5043038;57;1132986;-79
2021/11/30 21:53:45;;;;;;;8.73;3.00;;;;;;;2.82;100.00;98716.64;5052919;58;1132800;-75
2021/11/30 21:58:50;;;;;;;8.87;3.90;;;;;;;2.85;100.00;98727.34;5010106;58;1133031;-78
2021/11/30 22:03:56;;;;;;;8.97;3.97;;;;;;;2.86;100.00;98746.80;5063553;57;1132814;-83
2021/11/30 22:09:02;;;;;;;6.07;3.40;;;;;;;2.88;100.00;98766.28;5047025;58;1132824;-82
2021/11/30 22:14:07;;;;;;;7.37;4.10;;;;;;;2.92;100.00;98779.44;5047111;58;1130735;-77
2021/11/30 22:19:13;;;;;;;13.20;7.10;;;;;;;2.96;100.00;98810.45;5109645;57;1130816;-84
2021/11/30 22:24:18;;;;;;;6.23;2.97;;;;;;;2.99;100.00;98824.59;5129783;57;1132983;-80
2021/11/30 22:29:25;;;;;;;7.20;3.70;;;;;;;2.98;100.00;98861.25;5129865;57;1134837;-76
2021/11/30 22:34:31;;;;;;;3.98;2.37;;;;;;;2.93;100.00;98882.47;5129873;57;1134813;-78
2021/11/30 22:39:36;;;;;;;2.73;1.77;;;;;;;2.87;100.00;98912.95;5129932;57;1135109;-79
2021/11/30 22:44:42;;;;;;;2.93;2.00;;;;;;;2.63;100.00;98931.65;5128268;57;1134976;-78
2021/11/30 22:49:48;;;;;;;2.30;2.10;;;;;;;2.45;100.00;98950.25;5039030;58;1135061;-82
2021/11/30 22:54:58;;;;;;;10.50;4.70;;;;;;;2.32;100.00;98979.91;5035070;58;1134885;-79
2021/11/30 23:00:04;;;;;;;2.70;2.40;;;;;;;2.26;100.00;99002.05;5034880;58;1137060;-84
2021/11/30 23:05:11;;;;;;;3.22;1.77;;;;;;;2.19;100.00;99011.20;5034870;58;1134857;-81
2021/11/30 23:10:17;;;;;;;2.77;2.57;;;;;;;2.17;100.00;99016.16;5034996;58;1134840;-79
2021/11/30 23:15:23;;;;;;;2.27;2.07;;;;;;;2.13;100.00;99019.47;5035031;58;1134906;-81
2021/11/30 23:20:48;;;;;;;6.60;4.63;;;;;;;2.15;100.00;99037.12;5034958;58;1135031;-77
2021/11/30 23:25:52;;;;;;;8.13;4.40;;;;;;;2.12;100.00;99049.09;5019035;58;1134873;-79
2021/11/30 23:31:05;;;;;;;4.72;3.42;;;;;;;2.09;100.00;99071.45;4991406;58;1134898;-80
2021/11/30 23:36:11;;;;;;;5.70;2.93;;;;;;;2.09;100.00;99089.23;5015957;58;1135151;-80
2021/11/30 23:41:17;;;;;;;4.43;2.77;;;;;;;2.07;100.00;99096.78;4970091;59;1134937;-76
2021/11/30 23:46:26;;;;;;;7.47;4.00;;;;;;;2.04;100.00;99110.02;4977964;58;1134831;-77